createdAt,value
2023-02-08T00:02:10.122Z,17.75
2023-02-08T00:07:14.702Z,18.00
2023-02-08T00:12:19.287Z,23.50
2023-02-08T00:17:23.895Z,50.00
2023-02-08T00:22:28.465Z,36.75
2023-02-08T00:27:35.049Z,35.00
2023-02-08T00:32:39.627Z,19.33
2023-02-08T00:37:44.359Z,9.50
2023-02-08T00:42:48.980Z,16.67
2023-02-08T00:47:54.576Z,14.00
2023-02-08T00:53:01.039Z,14.33
2023-02-08T01:03:09.604Z,12.00
2023-02-08T01:08:14.162Z,14.00
2023-02-08T01:18:22.733Z,9.50
2023-02-08T01:23:27.220Z,10.67
2023-02-08T01:28:31.847Z,11.50
2023-02-08T01:44:04.140Z,2.00
2023-02-08T01:49:26.773Z,6.00
2023-02-08T01:54:39.459Z,8.00
2023-02-08T01:59:55.780Z,7.00
2023-02-08T02:05:03.952Z,5.00
2023-02-08T02:10:28.473Z,8.00
2023-02-08T02:15:33.881Z,6.67
2023-02-08T02:20:55.178Z,5.00
2023-02-08T02:26:36.550Z,3.50
2023-02-08T02:32:04.457Z,0.50
2023-02-08T02:37:23.986Z,6.00
2023-02-08T02:43:06.775Z,4.00
2023-02-08T02:48:17.837Z,4.00
2023-02-08T02:53:27.302Z,8.00
2023-02-08T02:58:34.274Z,0.67
2023-02-08T03:03:38.977Z,0.00
2023-02-08T03:09:15.894Z,1.33
2023-02-08T03:15:00.125Z,0.00
2023-02-08T03:20:07.983Z,0.00
2023-02-08T03:25:35.184Z,0.00
2023-02-08T03:31:09.684Z,4.00
2023-02-08T03:36:52.225Z,0.00
2023-02-08T03:42:03.159Z,2.50
2023-02-08T03:47:20.285Z,0.00
2023-02-08T03:52:28.145Z,1.50
2023-02-08T03:57:42.442Z,1.50
2023-02-08T04:02:56.194Z,0.00
2023-02-08T04:08:01.299Z,2.00
2023-02-08T04:13:06.547Z,0.00
2023-02-08T04:18:11.342Z,0.00
2023-02-08T04:23:16.426Z,0.00
2023-02-08T04:28:21.543Z,2.00
2023-02-08T04:33:26.783Z,2.00
2023-02-08T04:38:32.424Z,0.00
2023-02-08T04:43:37.603Z,0.00
2023-02-08T04:48:42.383Z,0.00
2023-02-08T04:53:47.518Z,5.50
2023-02-08T04:58:52.643Z,2.00
2023-02-08T05:03:58.721Z,0.00
2023-02-08T05:09:04.350Z,4.00
2023-02-08T05:14:10.635Z,0.00
2023-02-08T05:19:15.749Z,0.00
2023-02-08T05:24:20.907Z,0.00
2023-02-08T05:29:26.283Z,0.00
2023-02-08T05:39:36.739Z,0.00
2023-02-08T05:44:41.884Z,0.00
2023-02-08T05:49:48.772Z,5.50
2023-02-08T05:54:55.715Z,0.00
2023-02-08T06:00:00.988Z,0.00
2023-02-08T06:05:09.596Z,3.50
2023-02-08T06:10:15.228Z,0.00
2023-02-08T06:15:20.916Z,0.00
2023-02-08T06:20:26.228Z,0.00
2023-02-08T06:25:31.546Z,2.00
2023-02-08T06:30:36.678Z,4.67
2023-02-08T06:35:41.934Z,0.00
2023-02-08T06:40:49.210Z,6.00
2023-02-08T06:45:54.482Z,4.00
2023-02-08T06:50:59.747Z,0.00
2023-02-08T06:56:04.982Z,0.00
2023-02-08T07:01:14.891Z,0.00
2023-02-08T07:06:22.086Z,0.00
2023-02-08T07:11:28.328Z,0.00
2023-02-08T07:16:32.984Z,0.00
2023-02-08T07:21:37.751Z,0.67
2023-02-08T07:26:42.414Z,0.50
2023-02-08T07:31:47.155Z,0.00
2023-02-08T07:36:51.805Z,0.00
2023-02-08T07:41:57.470Z,0.00
2023-02-08T07:47:06.367Z,0.00
2023-02-08T07:52:11.187Z,0.00
2023-02-08T08:10:25.809Z,2.00
2023-02-08T08:15:31.345Z,4.00
2023-02-08T08:20:39.293Z,2.00
2023-02-08T08:30:49.551Z,8.50
2023-02-08T08:35:54.760Z,2.00
2023-02-08T08:40:59.794Z,6.00
2023-02-08T08:46:06.384Z,0.00
2023-02-08T08:51:11.636Z,13.00
2023-02-08T08:56:16.699Z,1.00
2023-02-08T09:01:21.925Z,1.00
2023-02-08T09:06:27.193Z,13.25
2023-02-08T09:11:34.403Z,0.00
2023-02-08T09:16:39.485Z,0.00
2023-02-08T09:21:44.934Z,0.00
2023-02-08T09:26:51.375Z,0.00
2023-02-08T09:31:56.770Z,0.00
2023-02-08T09:37:01.930Z,0.00
2023-02-08T09:56:07.000Z,0.67
2023-02-08T10:01:34.008Z,15.00
2023-02-08T10:06:39.727Z,0.00
2023-02-08T10:12:09.655Z,8.00
2023-02-08T10:17:51.001Z,0.00
2023-02-08T10:23:12.128Z,1.00
2023-02-08T10:28:41.420Z,0.00
2023-02-08T10:34:13.378Z,0.00
2023-02-08T10:39:35.292Z,50.00
2023-02-08T10:45:27.134Z,0.00
2023-02-08T10:50:41.082Z,1.00
2023-02-08T10:55:48.673Z,1.33
2023-02-08T11:00:54.484Z,0.50
2023-02-08T11:05:59.588Z,4.00
2023-02-08T11:11:12.264Z,2.00
2023-02-08T11:16:29.160Z,0.00
2023-02-08T11:21:36.262Z,0.00
2023-02-08T11:26:42.078Z,0.00
2023-02-08T11:32:15.268Z,0.00
2023-02-08T11:37:29.906Z,0.00
2023-02-08T11:42:48.565Z,0.00
2023-02-08T11:47:54.642Z,1.00
2023-02-08T11:53:06.127Z,0.00
2023-02-08T11:58:26.285Z,0.00
2023-02-08T12:03:38.959Z,5.50
2023-02-08T12:09:03.295Z,0.00
2023-02-08T12:14:32.281Z,0.00
2023-02-08T12:20:05.591Z,0.00
2023-02-08T12:25:32.253Z,4.50
2023-02-08T12:36:14.980Z,21.50
2023-02-08T12:41:20.801Z,40.25
2023-02-08T12:46:48.115Z,51.00
2023-02-08T12:52:20.828Z,40.50
2023-02-08T12:57:31.778Z,49.50
2023-02-08T13:02:47.420Z,45.25
2023-02-08T13:08:19.050Z,44.25
2023-02-08T13:13:30.716Z,76.75
2023-02-08T13:23:52.878Z,49.00
2023-02-08T13:29:02.469Z,28.75
2023-02-08T13:34:20.614Z,21.00
2023-02-08T13:39:41.348Z,18.00
2023-02-08T13:44:56.926Z,19.50
2023-02-08T13:50:08.720Z,14.00
2023-02-08T13:55:37.272Z,17.00
2023-02-08T14:01:02.677Z,27.50
2023-02-08T14:06:30.244Z,23.67
2023-02-08T14:11:46.597Z,15.67
2023-02-08T14:17:11.515Z,21.67
2023-02-08T14:22:16.582Z,18.00
2023-02-08T14:27:39.945Z,17.25
2023-02-08T14:38:24.835Z,21.33
2023-02-08T14:44:03.817Z,26.33
2023-02-08T14:49:18.280Z,12.00
2023-02-08T14:54:51.185Z,17.33
2023-02-08T15:00:00.904Z,24.75
2023-02-08T15:05:10.476Z,26.50
2023-02-08T15:10:18.951Z,27.33
2023-02-08T15:15:48.735Z,38.25
2023-02-08T15:21:21.004Z,25.00
2023-02-08T15:26:26.107Z,13.00
2023-02-08T15:31:37.039Z,13.33
2023-02-08T15:36:43.636Z,21.33
2023-02-08T15:41:52.488Z,30.00
2023-02-08T15:47:02.082Z,14.33
2023-02-08T15:57:35.169Z,45.00
2023-02-08T16:02:40.277Z,41.00
2023-02-08T16:07:48.990Z,20.50
2023-02-08T16:13:00.588Z,22.00
2023-02-08T16:18:06.944Z,31.33
2023-02-08T16:23:29.222Z,18.50
2023-02-08T16:28:35.724Z,18.50
2023-02-08T16:33:41.059Z,14.00
2023-02-08T16:39:24.054Z,31.00
2023-02-08T16:44:35.268Z,39.00
2023-02-08T16:49:42.378Z,20.50
2023-02-08T16:54:47.580Z,32.25
2023-02-08T16:59:53.116Z,28.25
2023-02-08T17:04:57.728Z,27.00
2023-02-08T17:10:02.400Z,24.75
2023-02-08T17:15:07.414Z,50.00
2023-02-08T17:20:34.402Z,39.00
2023-02-08T17:25:40.870Z,38.67
2023-02-08T17:30:46.230Z,38.75
2023-02-08T17:35:54.191Z,39.00
2023-02-08T17:41:01.614Z,41.67
2023-02-08T17:46:21.581Z,45.00
2023-02-08T17:51:29.194Z,45.50
2023-02-08T17:56:37.658Z,37.25
2023-02-08T18:01:42.374Z,46.33
2023-02-08T18:06:47.811Z,43.50
2023-02-08T18:11:52.521Z,41.33
2023-02-08T18:16:59.615Z,41.50
2023-02-08T18:22:06.716Z,41.00
2023-02-08T18:27:11.674Z,36.25
2023-02-08T18:32:17.227Z,37.33
2023-02-08T18:37:22.973Z,39.75
2023-02-08T18:42:27.889Z,36.50
2023-02-08T18:47:32.830Z,38.00
2023-02-08T18:52:38.521Z,42.50
2023-02-08T18:57:45.265Z,36.75
2023-02-08T19:02:50.300Z,36.00
2023-02-08T19:07:55.083Z,44.50
2023-02-08T19:13:00.670Z,46.00
2023-02-08T19:18:06.558Z,43.00
2023-02-08T19:23:11.646Z,44.67
2023-02-08T19:33:21.321Z,36.67
2023-02-08T19:38:26.543Z,37.00
2023-02-08T19:43:33.471Z,42.50
2023-02-08T19:48:38.397Z,37.50
2023-02-08T19:53:43.209Z,42.25
2023-02-08T19:58:50.194Z,42.00
2023-02-08T20:03:56.270Z,36.00
2023-02-08T20:09:07.060Z,31.00
2023-02-08T20:14:15.718Z,38.67
2023-02-08T20:19:20.460Z,40.00
2023-02-08T20:24:25.880Z,43.25
2023-02-08T20:29:31.917Z,30.33
2023-02-08T20:34:38.152Z,33.50
2023-02-08T20:39:44.355Z,42.00
2023-02-08T20:44:51.007Z,37.00
2023-02-08T20:49:56.168Z,39.67
2023-02-08T20:55:01.396Z,34.25
2023-02-08T21:00:07.136Z,29.67
2023-02-08T21:05:11.996Z,41.00
2023-02-08T21:10:17.707Z,40.00
2023-02-08T21:15:22.542Z,40.25
2023-02-08T21:20:27.592Z,41.75
2023-02-08T21:25:33.297Z,32.00
2023-02-08T21:30:38.329Z,39.25
2023-02-08T21:35:43.181Z,43.75
2023-02-08T21:40:48.153Z,42.33
2023-02-08T21:45:53.031Z,37.33
2023-02-08T21:51:20.399Z,37.00
2023-02-08T21:56:26.017Z,32.00
2023-02-08T22:01:31.395Z,37.00
2023-02-08T22:06:36.527Z,38.00
2023-02-08T22:11:43.898Z,43.00
2023-02-08T22:16:49.259Z,39.75
2023-02-08T22:21:54.348Z,33.25
2023-02-08T22:26:59.467Z,32.00
2023-02-08T22:32:04.847Z,31.00
2023-02-08T22:37:11.674Z,36.25
2023-02-08T22:42:16.872Z,39.00
2023-02-08T22:47:23.483Z,35.00
2023-02-08T22:52:29.074Z,34.75
2023-02-08T22:57:37.612Z,34.00
2023-02-08T23:02:43.229Z,37.75
2023-02-08T23:07:48.400Z,34.00
2023-02-08T23:12:53.249Z,39.25
2023-02-08T23:17:59.439Z,38.00
2023-02-08T23:23:04.409Z,36.00
2023-02-08T23:28:12.223Z,35.25
2023-02-08T23:33:17.305Z,35.67
2023-02-08T23:38:22.384Z,30.00
2023-02-08T23:43:28.302Z,41.50
2023-02-08T23:48:33.396Z,37.25
2023-02-08T23:53:39.647Z,36.75
2023-02-08T23:58:46.597Z,36.50
